Latest Weather Observations for Geraldton Airport

IDW60801

Issued at 11:02 pm WST Sunday 21 December 2014 (issued every 30 minutes, with the page automatically refreshed every 10 minutes)

About weather observations | Map of weather stations | Latest weather observations for WA | Other Formats
Station Details ID: 008315 Name: GERALDTON AIRPORT Lat: -28.80 Lon: 114.70 Height: 29.7 m
Data from the previous 72 hours. | See also: Recent months at Geraldton Airport
Date/Time
WST
Temp
°C
App
Temp
°C
Dew
Point
Rel
Hum
%
Delta-T
°C
Wind Press
QNH
hPa
Press
MSL
hPa
Rain
since 9 am
mm
Dir
 
Spd
km/h
Gust
km/h
Spd
kts
Gust
kts
21/11:00pm 19.6 16.3 13.9 69 3.3 SSE 24 37 13 20 1013.2 - 0.0
21/10:30pm 19.9 15.9 15.2 74 2.8 SSE 30 39 16 21 1012.7 - 0.0
21/10:00pm 20.2 16.4 16.7 80 2.1 S 32 41 17 22 1013.0 - 0.0
21/09:30pm 20.0 15.5 16.3 79 2.2 S 35 46 19 25 1013.1 - 0.0
21/09:00pm 20.0 15.0 16.0 78 2.4 S 37 48 20 26 1012.9 1012.8 0.0
21/08:30pm 20.0 14.9 15.8 77 2.5 S 37 50 20 27 1012.8 - 0.0
21/08:00pm 20.1 14.7 15.9 77 2.5 S 39 52 21 28 1012.8 - 0.0
21/07:30pm 20.3 14.8 15.8 75 2.7 S 39 48 21 26 1012.5 - 0.0
21/07:00pm 20.7 15.7 16.1 75 2.8 S 37 48 20 26 1012.4 - 0.0
21/06:30pm 21.4 16.0 15.9 71 3.3 S 39 52 21 28 1011.9 - 0.0
21/06:11pm 21.8 16.3 15.7 68 3.7 S 39 57 21 31 1011.8 - 0.0
21/06:00pm 22.2 16.4 15.9 67 3.8 S 41 50 22 27 1011.9 1011.8 0.0
21/05:30pm 22.4 15.6 15.8 66 4.0 S 46 57 25 31 1011.7 - 0.0
21/05:00pm 22.8 16.3 15.5 63 4.4 S 44 56 24 30 1011.6 - 0.0
21/04:30pm 23.5 17.9 15.6 61 4.8 S 39 57 21 31 1011.7 - 0.0
21/04:23pm 24.2 18.8 15.1 56 5.5 S 37 57 20 31 1011.7 - 0.0
21/04:00pm 25.6 19.7 14.8 51 6.5 S 39 50 21 27 1011.8 - 0.0
21/03:30pm 25.3 19.4 14.8 52 6.3 S 39 46 21 25 1012.1 - 0.0
21/03:00pm 26.0 20.1 14.6 49 6.8 S 39 52 21 28 1012.2 1012.1 0.0
21/02:30pm 25.8 19.0 14.2 48 6.9 S 43 54 23 29 1012.2 - 0.0
21/02:00pm 25.8 18.8 13.8 47 7.1 S 43 54 23 29 1012.5 - 0.0
21/01:30pm 25.3 18.7 13.8 49 6.8 S 41 50 22 27 1012.8 - 0.0
21/01:00pm 25.6 18.3 12.9 45 7.4 S 43 52 23 28 1013.1 - 0.0
21/12:30pm 25.2 18.3 12.8 46 7.2 S 41 52 22 28 1013.3 - 0.0
21/12:00pm 25.9 19.2 12.2 42 7.9 SSW 39 50 21 27 1013.5 1013.4 0.0
21/11:30am 25.1 18.3 11.8 43 7.6 S 39 50 21 27 1013.6 - 0.0
21/11:00am 25.2 18.6 11.5 42 7.8 S 37 46 20 25 1013.9 - 0.0
21/10:30am 24.4 17.8 11.5 44 7.3 S 37 46 20 25 1014.0 - 0.0
21/10:00am 24.0 18.6 12.1 47 6.8 S 32 44 17 24 1014.2 - 0.0
21/09:30am 24.6 19.8 11.8 44 7.3 S 28 37 15 20 1014.4 - 0.0
21/09:00am 23.7 18.6 10.7 44 7.2 SSE 28 39 15 21 1014.3 1014.2 0.0
21/08:00am 21.2 15.2 10.8 51 5.7 SSE 33 41 18 22 1014.1 - 0.0
21/07:00am 18.6 13.1 11.9 65 3.7 SSE 32 39 17 21 1013.7 - 0.0
21/06:30am 17.5 14.3 13.1 75 2.5 SSE 22 28 12 15 1013.5 - 0.0
21/05:30am 15.2 14.3 13.8 91 0.8 SE 11 13 6 7 1013.0 - 0.0
21/05:00am 15.4 14.6 14.0 91 0.8 ESE 11 13 6 7 1012.6 - 0.0
21/04:30am 16.1 15.0 14.4 90 1.0 SE 13 15 7 8 1012.5 - 0.0
21/04:00am 16.3 15.2 14.4 88 1.1 SE 13 15 7 8 1012.2 - 0.0
21/03:30am 17.3 16.4 14.9 86 1.4 SSE 13 17 7 9 1012.0 - 0.0
21/03:00am 17.8 17.3 15.8 88 1.2 SE 13 13 7 7 1011.9 1011.8 0.0
21/02:30am 18.8 18.6 16.7 87 1.3 SE 13 17 7 9 1011.9 - 0.0
21/02:00am 19.5 18.5 16.7 84 1.7 SSE 17 24 9 13 1012.0 - 0.0
21/01:30am 19.8 17.8 16.4 81 2.0 S 22 28 12 15 1012.1 - 0.0
21/01:00am 20.1 17.6 16.1 78 2.4 S 24 30 13 16 1012.3 - 0.0
21/12:30am 20.2 17.3 16.0 77 2.5 S 26 35 14 19 1012.4 - 0.0
21/12:00am 20.1 16.7 15.7 76 2.6 S 28 37 15 20 1012.8 1012.7 0.0
 
Date/Time
WST
Temp
°C
App
Temp
°C
Dew
Point
Rel
Hum
%
Delta-T
°C
Wind Press
QNH
hPa
Press
MSL
hPa
Rain
since 9 am
mm
Dir
 
Spd
km/h
Gust
km/h
Spd
kts
Gust
kts
20/11:30pm 20.0 16.5 15.6 76 2.6 S 28 39 15 21 1013.0 - 0.0
20/11:00pm 20.2 16.8 15.7 75 2.7 S 28 41 15 22 1013.2 - 0.0
20/10:30pm 20.0 16.4 15.3 74 2.8 S 28 39 15 21 1013.3 - 0.0
20/10:00pm 20.2 15.6 14.6 70 3.3 S 32 43 17 23 1013.0 - 0.0
20/09:30pm 20.2 16.0 14.6 70 3.3 S 30 44 16 24 1012.9 - 0.0
20/09:00pm 20.2 15.5 14.2 68 3.5 S 32 43 17 23 1012.7 1012.6 0.0
20/08:30pm 20.3 15.3 14.1 67 3.6 S 33 46 18 25 1012.8 - 0.0
20/08:00pm 20.4 15.7 14.2 67 3.6 S 32 44 17 24 1012.7 - 0.0
20/07:30pm 20.4 16.2 14.6 69 3.4 S 30 41 16 22 1012.6 - 0.0
20/07:00pm 20.5 15.5 14.1 66 3.7 S 33 43 18 23 1012.4 - 0.0
20/06:30pm 20.8 15.4 13.9 64 4.0 S 35 50 19 27 1012.4 - 0.0
20/06:00pm 21.5 16.2 14.1 62 4.3 S 35 48 19 26 1012.0 1011.9 0.0
20/05:30pm 21.5 16.2 14.2 63 4.3 S 35 48 19 26 1012.0 - 0.0
20/05:00pm 21.9 16.1 14.0 61 4.6 SSW 37 50 20 27 1011.9 - 0.0
20/04:30pm 22.6 16.0 13.7 57 5.2 S 41 50 22 27 1011.8 - 0.0
20/04:00pm 23.2 18.0 14.4 57 5.2 SSW 35 44 19 24 1011.9 - 0.0
20/03:30pm 23.2 18.6 14.5 58 5.1 SSW 32 44 17 24 1011.9 - 0.0
20/03:04pm 23.5 18.5 14.0 55 5.6 S 33 52 18 28 1012.0 - 0.0
20/03:00pm 22.9 18.2 14.2 58 5.1 S 32 43 17 23 1012.0 1011.9 0.0
20/02:30pm 22.7 18.1 14.6 60 4.8 SSW 32 41 17 22 1012.4 - 0.0
20/02:00pm 22.7 17.9 14.6 60 4.8 SSW 33 44 18 24 1012.5 - 0.0
20/01:30pm 23.5 18.6 13.6 53 5.8 S 32 39 17 21 1012.4 - 0.0
20/01:00pm 23.3 18.5 14.1 56 5.4 SSW 32 43 17 23 1012.6 - 0.0
20/12:30pm 24.1 19.2 14.3 54 5.8 SSW 33 46 18 25 1012.6 - 0.0
20/12:00pm 22.7 18.2 15.0 61 4.6 S 32 39 17 21 1012.7 1012.6 0.0
20/11:30am 22.1 18.5 15.3 65 4.1 SSW 28 39 15 21 1012.9 - 0.0
20/11:00am 22.1 18.6 15.4 65 4.0 SSW 28 39 15 21 1012.8 - 0.0
20/10:30am 21.9 17.8 14.8 64 4.2 SSW 30 39 16 21 1013.0 - 0.0
20/10:00am 21.7 18.2 15.5 68 3.7 SSW 28 35 15 19 1012.8 - 0.0
20/09:30am 21.3 17.4 15.5 69 3.5 SSW 30 37 16 20 1012.6 - 0.0
20/09:00am 21.4 18.2 15.4 68 3.6 SW 26 39 14 21 1012.5 1012.4 0.0
20/08:30am 21.1 18.7 15.5 70 3.3 SSW 22 32 12 17 1012.5 - 0.0
20/08:00am 20.9 17.8 15.7 72 3.1 SSW 26 37 14 20 1012.2 - 0.0
20/07:30am 20.5 17.5 15.8 74 2.8 SSW 26 39 14 21 1012.1 - 0.0
20/07:00am 20.6 17.7 16.1 75 2.7 SSW 26 33 14 18 1011.8 - 0.0
20/06:30am 20.6 17.7 15.2 71 3.2 SW 24 32 13 17 1011.4 - 0.0
20/06:00am 20.4 18.0 16.5 78 2.4 SW 24 32 13 17 1011.0 1010.9 0.0
20/05:30am 20.3 19.1 17.0 81 2.0 SW 19 24 10 13 1010.6 - 0.0
20/05:07am 20.2 18.7 16.7 80 2.1 SW 20 26 11 14 1010.4 - 0.0
20/05:00am 20.2 18.8 17.0 82 1.9 SW 20 26 11 14 1010.4 - 0.0
20/04:42am 20.3 19.0 16.9 81 2.1 SW 19 28 10 15 1010.3 - 0.0
20/04:30am 20.2 18.8 17.1 82 1.9 SW 20 26 11 14 1010.2 - 0.0
20/04:25am 20.3 19.0 17.2 82 1.9 SW 20 24 11 13 1010.1 - 0.0
20/04:00am 20.3 19.7 17.5 84 1.7 SW 17 24 9 13 1009.9 - 0.0
20/03:30am 20.2 19.5 17.4 84 1.7 SW 17 20 9 11 1009.8 - 0.0
20/03:00am 20.2 19.3 17.7 85 1.5 SW 19 24 10 13 1009.4 1009.3 0.0
20/02:30am 20.1 19.6 17.8 86 1.4 SW 17 20 9 11 1009.6 - 0.0
20/02:00am 19.8 19.6 17.7 88 1.3 SSW 15 28 8 15 1009.6 - 0.0
20/01:33am 19.7 19.2 17.8 89 1.2 SSW 17 20 9 11 1009.9 - 0.0
20/01:30am 19.7 19.2 17.7 88 1.2 SSW 17 20 9 11 1010.0 - 0.0
20/01:29am 19.7 19.5 17.6 88 1.3 SSW 15 20 8 11 1010.0 - 0.0
20/01:09am 19.9 20.2 17.8 88 1.3 SSW 13 20 7 11 1010.1 - 0.0
20/01:00am 19.9 19.3 17.6 86 1.4 SSW 17 24 9 13 1010.1 - 0.0
20/12:46am 20.0 19.1 17.7 86 1.4 SSW 19 24 10 13 1010.2 - 0.0
20/12:30am 20.2 19.3 17.8 86 1.5 SSW 19 26 10 14 1010.3 - 0.0
20/12:09am 20.5 19.4 17.8 84 1.7 SSW 20 26 11 14 1010.7 - 0.0
20/12:00am 20.6 19.5 17.7 83 1.8 SSW 20 28 11 15 1010.9 1010.8 0.0
 
Date/Time
WST
Temp
°C
App
Temp
°C
Dew
Point
Rel
Hum
%
Delta-T
°C
Wind Press
QNH
hPa
Press
MSL
hPa
Rain
since 9 am
mm
Dir
 
Spd
km/h
Gust
km/h
Spd
kts
Gust
kts
19/11:45pm 20.5 19.4 17.8 84 1.7 SSW 20 28 11 15 1011.1 - 0.0
19/11:33pm 20.3 19.3 17.5 84 1.7 SSW 19 26 10 14 1011.1 - 0.0
19/11:30pm 20.3 19.3 17.5 84 1.7 SSW 19 26 10 14 1011.1 - 0.0
19/11:00pm 20.1 19.9 17.5 85 1.6 SSW 15 19 8 10 1011.2 - 0.0
19/10:30pm 20.3 19.7 17.6 84 1.7 SSW 17 22 9 12 1011.0 - 0.0
19/10:00pm 20.4 20.2 17.5 83 1.8 SW 15 20 8 11 1011.1 - 0.0
19/09:30pm 20.7 20.1 17.6 82 1.9 SW 17 24 9 13 1010.8 - 0.0
19/09:00pm 20.8 20.2 17.6 82 2.0 SW 17 22 9 12 1010.5 1010.4 0.0
19/08:30pm 20.9 20.0 17.8 82 1.9 SW 19 24 10 13 1010.2 - 0.0
19/08:00pm 21.1 20.3 18.1 83 1.9 SW 19 24 10 13 1010.0 - 0.0
19/07:30pm 21.4 20.2 18.4 83 1.9 SW 22 30 12 16 1009.5 - 0.0
19/07:00pm 21.9 20.3 18.4 80 2.2 SW 24 30 13 16 1009.2 - 0.0
19/06:30pm 22.9 21.6 18.1 74 3.0 SW 22 33 12 18 1009.0 - 0.0
19/06:00pm 23.5 21.4 18.0 71 3.4 WSW 26 33 14 18 1008.5 1008.5 0.0
19/05:30pm 24.8 23.5 18.1 66 4.2 WSW 22 30 12 16 1008.0 - 0.0
19/05:00pm 25.6 24.0 17.5 61 5.1 W 22 28 12 15 1007.7 - 0.0
19/04:30pm 26.4 24.9 16.8 55 6.0 WSW 20 28 11 15 1007.6 - 0.0
19/04:00pm 27.8 25.3 16.1 49 7.2 W 24 32 13 17 1007.7 - 0.0
19/03:30pm 29.1 26.4 13.4 38 9.3 SW 20 30 11 16 1007.5 - 0.0
19/03:00pm 28.8 26.1 13.6 39 9.1 SW 20 26 11 14 1007.7 1007.7 0.0
19/02:30pm 29.1 25.5 12.0 34 10.0 SW 22 28 12 15 1007.7 - 0.0
19/02:00pm 30.2 26.4 9.7 28 11.6 SW 20 28 11 15 1007.8 - 0.0
19/01:30pm 29.5 25.5 9.1 28 11.3 WSW 20 30 11 16 1008.0 - 0.0
19/01:00pm 29.5 25.9 10.4 30 10.9 SW 20 28 11 15 1008.1 - 0.0
19/12:30pm 30.2 26.3 9.4 27 11.7 WSW 20 28 11 15 1008.1 - 0.0
19/12:00pm 29.6 25.6 9.2 28 11.4 WSW 20 28 11 15 1008.1 1008.1 0.0
19/11:30am 30.0 26.9 10.2 29 11.2 SW 17 24 9 13 1008.1 - 0.0
19/11:00am 30.1 27.1 10.6 30 11.1 SW 17 24 9 13 1008.4 - 0.0
19/10:30am 29.0 26.5 12.3 35 9.8 SW 17 24 9 13 1008.4 - 0.0
19/10:00am 28.5 26.2 13.1 38 9.1 SW 17 22 9 12 1008.4 - 0.0
19/09:30am 28.6 26.0 13.8 40 8.8 SW 20 24 11 13 1008.5 - 0.0
19/09:00am 27.5 26.8 13.3 41 8.4 S 9 15 5 8 1008.8 1008.7 0.0
19/08:30am 26.0 25.2 13.9 47 7.2 S 11 17 6 9 1009.0 - 0.0
19/08:00am 24.1 23.9 14.7 55 5.6 SSE 9 15 5 8 1009.1 - 0.0
19/07:30am 22.1 21.9 14.6 62 4.4 SSE 9 13 5 7 1009.2 - 0.0
19/07:00am 20.2 20.2 14.1 68 3.5 SE 7 9 4 5 1009.2 - 0.0
19/06:30am 18.0 18.9 12.9 72 2.9 CALM 0 6 0 3 1009.2 - 0.0
19/06:00am 16.1 15.7 12.3 78 2.1 SE 6 7 3 4 1009.1 1009.0 0.0
19/05:30am 15.3 15.9 12.0 81 1.8 CALM 0 0 0 0 1009.0 - 0.0
19/05:00am 15.0 14.5 11.9 82 1.7 SSE 6 7 3 4 1008.9 - 0.0
19/04:30am 15.2 14.7 11.9 81 1.8 SE 6 7 3 4 1008.6 - 0.0
19/04:00am 15.5 14.4 12.0 79 1.9 SSE 9 11 5 6 1008.5 - 0.0
19/03:30am 15.4 15.0 12.5 83 1.6 SE 6 9 3 5 1008.9 - 0.0
19/03:00am 17.0 15.7 13.8 81 1.8 SE 13 15 7 8 1008.9 1008.8 0.0
19/02:30am 19.2 17.3 15.1 77 2.4 S 19 26 10 14 1009.0 - 0.0
19/02:00am 19.2 17.2 15.0 76 2.5 S 19 26 10 14 1009.0 - 0.0
19/01:30am 19.2 17.3 15.1 77 2.4 S 19 24 10 13 1009.3 - 0.0
19/01:00am 19.5 17.8 14.8 74 2.7 S 17 24 9 13 1009.7 - 0.0
19/12:30am 19.6 17.7 15.3 76 2.5 S 19 26 10 14 1010.0 - 0.0
19/12:00am 19.9 17.1 15.4 75 2.7 S 24 30 13 16 1010.1 1010.0 0.0
 
Date/Time
WST
Temp
°C
App
Temp
°C
Dew
Point
Rel
Hum
%
Delta-T
°C
Wind Press
QNH
hPa
Press
MSL
hPa
Rain
since 9 am
mm
Dir
 
Spd
km/h
Gust
km/h
Spd
kts
Gust
kts
18/11:30pm 20.1 16.9 15.3 74 2.8 S 26 35 14 19 1010.4 - 0.0

Other Formats:

Comma delimited format used in spreadsheet applications
http://www.bom.gov.au/fwo/IDW60801/IDW60801.94403.axf

JavaScript Object Notation format (JSON) in row-major order
http://www.bom.gov.au/fwo/IDW60801/IDW60801.94403.json